createdAt,value
2019-05-18T00:02:22.663Z,10.94
2019-05-18T00:04:50.670Z,10.89
2019-05-18T00:07:19.790Z,10.74
2019-05-18T00:09:47.737Z,10.73
2019-05-18T00:12:15.586Z,10.64
2019-05-18T00:14:43.522Z,10.58
2019-05-18T00:17:24.533Z,10.48
2019-05-18T00:19:41.379Z,10.40
2019-05-18T00:22:09.402Z,10.32
2019-05-18T00:24:37.254Z,10.27
2019-05-18T00:27:05.342Z,10.17
2019-05-18T00:29:35.261Z,10.10
2019-05-18T00:32:03.631Z,10.00
2019-05-18T00:34:31.625Z,9.95
2019-05-18T00:36:59.708Z,9.90
2019-05-18T00:39:27.732Z,9.83
2019-05-18T00:41:55.665Z,9.79
2019-05-18T00:44:23.773Z,9.77
2019-05-18T00:46:51.772Z,9.60
2019-05-18T00:49:20.324Z,9.71
2019-05-18T00:51:48.399Z,9.69
2019-05-18T00:54:16.403Z,9.70
2019-05-18T00:56:44.566Z,9.69
2019-05-18T00:59:16.002Z,9.70
2019-05-18T01:01:42.813Z,9.66
2019-05-18T01:04:11.150Z,9.66
2019-05-18T01:06:39.284Z,9.67
2019-05-18T01:09:07.269Z,9.69
2019-05-18T01:11:35.337Z,9.69
2019-05-18T01:14:03.686Z,9.68
2019-05-18T01:16:31.971Z,9.70
2019-05-18T01:18:59.983Z,9.68
2019-05-18T01:21:28.013Z,9.73
2019-05-18T01:23:56.179Z,9.71
2019-05-18T01:26:24.357Z,9.70
2019-05-18T01:28:56.142Z,9.77
2019-05-18T01:31:23.987Z,9.85
2019-05-18T01:33:52.167Z,9.85
2019-05-18T01:36:20.124Z,9.86
2019-05-18T01:38:48.324Z,9.84
2019-05-18T01:41:16.267Z,9.80
2019-05-18T01:43:44.191Z,9.76
2019-05-18T01:46:12.005Z,9.66
2019-05-18T01:48:39.737Z,9.57
2019-05-18T01:51:07.648Z,9.44
2019-05-18T01:53:35.782Z,9.36
2019-05-18T01:56:03.791Z,9.33
2019-05-18T01:58:31.952Z,9.26
2019-05-18T02:00:59.462Z,9.15
2019-05-18T02:03:27.347Z,9.03
2019-05-18T02:05:55.086Z,8.95
2019-05-18T02:08:23.162Z,8.92
2019-05-18T02:10:50.983Z,8.81
2019-05-18T02:13:18.958Z,8.74
2019-05-18T02:15:46.814Z,8.53
2019-05-18T02:18:28.157Z,8.54
2019-05-18T02:20:44.925Z,8.56
2019-05-18T02:23:12.926Z,8.52
2019-05-18T02:25:41.563Z,8.49
2019-05-18T02:28:09.744Z,8.44
2019-05-18T02:30:37.721Z,8.38
2019-05-18T02:33:05.821Z,8.45
2019-05-18T02:35:33.862Z,8.35
2019-05-18T02:38:15.537Z,8.30
2019-05-18T02:40:45.452Z,8.22
2019-05-18T02:43:13.471Z,8.09
2019-05-18T02:45:41.560Z,8.02
2019-05-18T02:48:09.679Z,7.90
2019-05-18T02:50:38.002Z,7.69
2019-05-18T02:53:06.085Z,7.88
2019-05-18T02:55:34.069Z,7.87
2019-05-18T02:58:01.972Z,7.85
2019-05-18T03:00:30.038Z,7.82
2019-05-18T03:02:57.950Z,7.75
2019-05-18T03:05:25.906Z,7.71
2019-05-18T03:07:53.717Z,7.60
2019-05-18T03:10:21.763Z,7.55
2019-05-18T03:12:49.544Z,7.55
2019-05-18T03:15:17.408Z,7.50
2019-05-18T03:17:45.410Z,7.52
2019-05-18T03:20:13.426Z,7.43
2019-05-18T03:22:41.329Z,7.43
2019-05-18T03:25:09.573Z,7.40
2019-05-18T03:27:37.497Z,7.38
2019-05-18T03:30:05.510Z,7.32
2019-05-18T03:32:33.483Z,7.18
2019-05-18T03:35:01.659Z,7.30
2019-05-18T03:37:29.604Z,7.19
2019-05-18T03:39:57.582Z,7.29
2019-05-18T03:42:25.634Z,7.39
2019-05-18T03:44:53.643Z,7.35
2019-05-18T03:47:21.609Z,7.30
2019-05-18T03:49:49.688Z,7.26
2019-05-18T03:52:17.851Z,7.33
2019-05-18T03:54:45.652Z,7.35
2019-05-18T03:57:13.568Z,7.40
2019-05-18T03:59:41.431Z,7.41
2019-05-18T04:02:09.333Z,7.45
2019-05-18T04:04:37.265Z,7.51
2019-05-18T04:07:05.252Z,7.63
2019-05-18T04:09:33.053Z,7.74
2019-05-18T04:12:00.979Z,7.80
2019-05-18T04:14:29.103Z,7.83
2019-05-18T04:16:57.711Z,7.93
2019-05-18T04:19:42.969Z,8.09
2019-05-18T04:21:55.622Z,8.22
2019-05-18T04:24:23.498Z,8.37
2019-05-18T04:26:51.504Z,8.51
2019-05-18T04:29:19.283Z,8.65
2019-05-18T04:31:46.923Z,8.81
2019-05-18T04:34:14.857Z,9.06
2019-05-18T04:36:42.921Z,9.30
2019-05-18T04:39:10.865Z,9.52
2019-05-18T04:41:38.434Z,9.70
2019-05-18T04:44:06.447Z,9.89
2019-05-18T04:46:34.414Z,10.10
2019-05-18T04:49:02.444Z,10.29
2019-05-18T04:51:30.257Z,10.52
2019-05-18T04:53:58.091Z,10.66
2019-05-18T04:56:25.889Z,10.81
2019-05-18T04:58:53.994Z,10.89
2019-05-18T05:01:22.037Z,10.90
2019-05-18T05:03:50.151Z,11.02
2019-05-18T05:06:18.195Z,11.12
2019-05-18T05:08:46.267Z,11.22
2019-05-18T05:11:14.202Z,11.26
2019-05-18T05:13:42.553Z,11.34
2019-05-18T05:16:10.661Z,11.44
2019-05-18T05:18:38.564Z,11.53
2019-05-18T05:21:06.969Z,11.67
2019-05-18T05:23:34.901Z,11.76
2019-05-18T05:26:03.107Z,11.89
2019-05-18T05:28:30.975Z,11.93
2019-05-18T05:30:58.870Z,11.96
2019-05-18T05:33:26.630Z,12.07
2019-05-18T05:35:54.719Z,12.17
2019-05-18T05:38:22.519Z,12.22
2019-05-18T05:40:50.639Z,12.42
2019-05-18T05:43:20.155Z,12.55
2019-05-18T05:45:48.116Z,12.69
2019-05-18T05:48:16.273Z,12.85
2019-05-18T05:50:44.149Z,12.84
2019-05-18T05:53:11.965Z,12.87
2019-05-18T05:55:39.892Z,13.02
2019-05-18T05:58:07.987Z,13.12
2019-05-18T06:00:35.519Z,13.02
2019-05-18T06:03:03.451Z,13.35
2019-05-18T06:05:31.333Z,13.50
2019-05-18T06:07:59.266Z,13.46
2019-05-18T06:10:27.793Z,13.37
2019-05-18T06:12:55.662Z,13.28
2019-05-18T06:15:24.879Z,13.58
2019-05-18T06:17:52.609Z,13.61
2019-05-18T06:20:20.408Z,13.45
2019-05-18T06:22:48.267Z,13.69
2019-05-18T06:25:16.173Z,13.94
2019-05-18T06:27:44.084Z,14.00
2019-05-18T06:30:13.120Z,13.92
2019-05-18T06:32:41.128Z,13.94
2019-05-18T06:35:09.261Z,14.01
2019-05-18T06:37:37.393Z,14.02
2019-05-18T06:40:05.301Z,14.27
2019-05-18T06:42:33.317Z,14.10
2019-05-18T06:45:01.252Z,14.00
2019-05-18T06:47:29.359Z,13.98
2019-05-18T06:49:57.281Z,14.06
2019-05-18T06:52:25.331Z,14.18
2019-05-18T06:54:53.241Z,14.08
2019-05-18T06:57:22.144Z,14.14
2019-05-18T06:59:50.075Z,14.33
2019-05-18T07:02:17.973Z,14.44
2019-05-18T07:04:46.041Z,14.47
2019-05-18T07:07:13.920Z,14.71
2019-05-18T07:09:41.870Z,14.54
2019-05-18T07:12:09.809Z,14.71
2019-05-18T07:14:37.939Z,14.99
2019-05-18T07:17:05.955Z,15.19
2019-05-18T07:19:33.857Z,15.39
2019-05-18T07:22:01.959Z,15.75
2019-05-18T07:24:29.887Z,15.69
2019-05-18T07:26:57.891Z,15.86
2019-05-18T07:29:25.950Z,16.10
2019-05-18T07:31:53.656Z,15.99
2019-05-18T07:34:21.587Z,16.12
2019-05-18T07:36:49.784Z,15.92
2019-05-18T07:39:17.756Z,15.91
2019-05-18T07:41:47.221Z,15.85
2019-05-18T07:44:15.463Z,15.93
2019-05-18T07:46:43.453Z,16.07
2019-05-18T07:49:11.629Z,16.09
2019-05-18T07:51:40.901Z,16.14
2019-05-18T07:54:09.011Z,15.94
2019-05-18T07:56:36.864Z,15.90
2019-05-18T07:59:04.901Z,15.97
2019-05-18T08:01:32.947Z,15.96
2019-05-18T08:04:00.680Z,16.16
2019-05-18T08:06:28.761Z,16.22
2019-05-18T08:08:56.499Z,16.27
2019-05-18T08:11:24.485Z,16.29
2019-05-18T08:13:52.635Z,16.32
2019-05-18T08:16:20.325Z,16.31
2019-05-18T08:18:48.156Z,16.26
2019-05-18T08:21:16.053Z,16.18
2019-05-18T08:23:43.880Z,16.05
2019-05-18T08:26:11.839Z,16.16
2019-05-18T08:28:39.607Z,15.99
2019-05-18T08:31:07.744Z,16.15
2019-05-18T08:33:35.617Z,16.13
2019-05-18T08:36:03.213Z,16.11
2019-05-18T08:38:31.159Z,16.08
2019-05-18T08:41:00.300Z,16.05
2019-05-18T08:43:28.347Z,16.02
2019-05-18T08:45:56.420Z,16.18
2019-05-18T08:48:24.427Z,15.97
2019-05-18T08:50:52.784Z,15.79
2019-05-18T08:53:20.964Z,15.60
2019-05-18T08:55:49.779Z,15.35
2019-05-18T08:58:17.677Z,15.32
2019-05-18T09:00:45.777Z,15.31
2019-05-18T09:03:13.396Z,15.28
2019-05-18T09:05:41.287Z,15.34
2019-05-18T09:08:08.979Z,15.33
2019-05-18T09:10:36.683Z,15.24
2019-05-18T09:13:04.315Z,15.24
2019-05-18T09:15:32.023Z,15.38
2019-05-18T09:17:59.603Z,15.51
2019-05-18T09:20:27.214Z,15.65
2019-05-18T09:22:54.883Z,15.91
2019-05-18T09:25:22.565Z,15.98
2019-05-18T09:27:50.394Z,15.95
2019-05-18T09:30:18.225Z,16.01
2019-05-18T09:32:45.906Z,16.16
2019-05-18T09:35:13.631Z,16.23
2019-05-18T09:37:41.349Z,16.26
2019-05-18T09:40:10.044Z,16.22
2019-05-18T09:42:37.701Z,16.27
2019-05-18T09:45:06.640Z,16.22
2019-05-18T09:47:34.756Z,16.11
2019-05-18T09:50:02.660Z,16.03
2019-05-18T09:52:44.114Z,16.01
2019-05-18T09:55:00.431Z,16.00
2019-05-18T09:57:28.370Z,16.08
2019-05-18T09:59:56.275Z,16.19
2019-05-18T10:02:24.049Z,16.29
2019-05-18T10:04:52.087Z,16.03
2019-05-18T10:07:20.037Z,16.06
2019-05-18T10:09:48.068Z,15.98
2019-05-18T10:12:15.952Z,15.88
2019-05-18T10:14:43.986Z,15.83
2019-05-18T10:17:11.871Z,15.81
2019-05-18T10:19:39.921Z,15.81
2019-05-18T10:22:09.102Z,15.89
2019-05-18T10:24:37.132Z,15.81
2019-05-18T10:27:05.285Z,15.99
2019-05-18T10:29:33.316Z,16.21
2019-05-18T10:32:01.367Z,16.31
2019-05-18T10:34:29.354Z,16.66
2019-05-18T10:36:57.564Z,16.95
2019-05-18T10:39:25.234Z,17.05
2019-05-18T10:41:52.943Z,17.14
2019-05-18T10:44:20.710Z,17.26
2019-05-18T10:46:48.368Z,17.45
2019-05-18T10:49:16.488Z,17.41
2019-05-18T10:51:44.422Z,17.54
2019-05-18T10:54:12.349Z,17.52
2019-05-18T10:56:40.366Z,17.39
2019-05-18T10:59:08.480Z,17.62
2019-05-18T11:01:38.005Z,17.62
2019-05-18T11:04:06.320Z,17.63
2019-05-18T11:06:34.164Z,17.79
2019-05-18T11:09:02.046Z,17.95
2019-05-18T11:11:30.140Z,17.94
2019-05-18T11:13:58.228Z,17.76
2019-05-18T11:16:26.107Z,17.74
2019-05-18T11:18:54.226Z,17.85
2019-05-18T11:21:22.290Z,18.34
2019-05-18T11:23:50.204Z,18.50
2019-05-18T11:26:18.167Z,18.80
2019-05-18T11:28:45.854Z,19.42
2019-05-18T11:31:13.449Z,19.65
2019-05-18T11:33:42.066Z,19.75
2019-05-18T11:36:10.359Z,19.85
2019-05-18T11:38:40.994Z,20.02
2019-05-18T11:41:08.961Z,20.02
2019-05-18T11:43:37.218Z,20.01
2019-05-18T11:46:05.238Z,20.53
2019-05-18T11:48:33.397Z,20.93
2019-05-18T11:51:01.242Z,21.14
2019-05-18T11:53:29.440Z,20.85
2019-05-18T11:55:57.546Z,20.66
2019-05-18T11:58:25.607Z,20.37
2019-05-18T12:00:53.530Z,20.75
2019-05-18T12:03:21.177Z,20.68
2019-05-18T12:05:48.739Z,20.53
2019-05-18T12:08:16.247Z,20.66
2019-05-18T12:10:44.303Z,20.57
2019-05-18T12:13:12.131Z,20.48
2019-05-18T12:15:40.048Z,20.73
2019-05-18T12:18:07.847Z,21.13
2019-05-18T12:20:35.862Z,21.89
2019-05-18T12:23:07.970Z,22.23
2019-05-18T12:25:33.861Z,22.01
2019-05-18T12:28:02.115Z,22.01
2019-05-18T12:30:30.329Z,22.41
2019-05-18T12:32:58.279Z,22.23
2019-05-18T12:35:26.493Z,22.56
2019-05-18T12:37:54.261Z,22.45
2019-05-18T12:40:22.152Z,22.29
2019-05-18T12:42:50.152Z,22.68
2019-05-18T12:45:18.298Z,22.67
2019-05-18T12:47:46.405Z,22.84
2019-05-18T12:50:15.619Z,22.86
2019-05-18T12:52:43.796Z,22.93
2019-05-18T12:55:13.299Z,22.88
2019-05-18T12:57:41.047Z,22.79
2019-05-18T13:00:10.063Z,22.46
2019-05-18T13:02:37.784Z,22.59
2019-05-18T13:05:05.734Z,22.68
2019-05-18T13:07:33.583Z,22.68
2019-05-18T13:10:01.660Z,22.57
2019-05-18T13:12:30.262Z,22.83
2019-05-18T13:14:58.451Z,23.08
2019-05-18T13:17:26.527Z,23.01
2019-05-18T13:19:54.536Z,23.05
2019-05-18T13:22:22.526Z,23.20
2019-05-18T13:24:52.254Z,23.05
2019-05-18T13:27:21.223Z,23.23
2019-05-18T13:29:48.931Z,22.95
2019-05-18T13:32:16.626Z,22.31
2019-05-18T13:34:44.280Z,22.47
2019-05-18T13:37:11.948Z,22.51
2019-05-18T13:39:39.749Z,22.25
2019-05-18T13:42:07.427Z,21.95
2019-05-18T13:44:38.026Z,21.64
2019-05-18T13:47:04.494Z,21.60
2019-05-18T13:49:32.224Z,21.42
2019-05-18T13:51:59.918Z,21.39
2019-05-18T13:54:27.631Z,21.53
2019-05-18T13:56:55.269Z,21.60
2019-05-18T13:59:22.831Z,21.67
2019-05-18T14:01:50.369Z,22.00
2019-05-18T14:04:17.978Z,22.26
2019-05-18T14:06:45.564Z,22.49
2019-05-18T14:09:13.246Z,22.29
2019-05-18T14:11:41.058Z,22.42
2019-05-18T14:14:09.064Z,22.17
2019-05-18T14:16:36.977Z,22.15
2019-05-18T14:19:04.668Z,22.51
2019-05-18T14:21:32.333Z,22.58
2019-05-18T14:23:59.977Z,22.65
2019-05-18T14:26:27.632Z,22.55
2019-05-18T14:28:55.359Z,22.77
2019-05-18T14:31:23.064Z,22.59
2019-05-18T14:33:50.698Z,22.06
2019-05-18T14:36:18.294Z,22.00
2019-05-18T14:38:46.349Z,22.01
2019-05-18T14:41:14.360Z,21.76
2019-05-18T14:43:42.394Z,21.50
2019-05-18T14:46:10.378Z,21.33
2019-05-18T14:48:40.483Z,21.21
2019-05-18T14:51:09.962Z,21.24
2019-05-18T14:53:37.862Z,21.22
2019-05-18T14:56:06.022Z,21.05
2019-05-18T14:58:33.772Z,21.11
2019-05-18T15:01:01.964Z,20.92
2019-05-18T15:03:29.936Z,20.97
2019-05-18T15:05:57.802Z,21.02
2019-05-18T15:08:25.680Z,21.06
2019-05-18T15:10:53.289Z,20.98
2019-05-18T15:13:21.273Z,20.82
2019-05-18T15:15:49.162Z,20.64
2019-05-18T15:18:17.040Z,20.36
2019-05-18T15:20:45.252Z,20.15
2019-05-18T15:23:13.105Z,20.10
2019-05-18T15:25:50.126Z,20.21
2019-05-18T15:28:10.746Z,20.26
2019-05-18T15:30:38.364Z,20.36
2019-05-18T15:33:05.952Z,20.20
2019-05-18T15:35:33.983Z,19.88
2019-05-18T15:38:01.843Z,19.89
2019-05-18T15:40:29.612Z,19.88
2019-05-18T15:42:57.468Z,19.85
2019-05-18T15:45:25.498Z,19.74
2019-05-18T15:47:53.206Z,19.65
2019-05-18T15:50:20.839Z,19.59
2019-05-18T15:52:48.392Z,19.47
2019-05-18T15:55:15.981Z,19.49
2019-05-18T15:57:43.509Z,19.41
2019-05-18T16:00:11.313Z,19.41
2019-05-18T16:02:38.985Z,19.41
2019-05-18T16:05:07.061Z,19.45
2019-05-18T16:07:34.619Z,19.38
2019-05-18T16:10:02.416Z,19.40
2019-05-18T16:12:31.646Z,19.32
2019-05-18T16:14:59.247Z,19.32
2019-05-18T16:17:38.951Z,19.32
2019-05-18T16:19:58.244Z,19.29
2019-05-18T16:22:25.767Z,19.20
2019-05-18T16:24:53.885Z,19.11
2019-05-18T16:27:21.518Z,19.10
2019-05-18T16:29:49.159Z,19.04
2019-05-18T16:32:16.727Z,19.06
2019-05-18T16:34:44.393Z,18.92
2019-05-18T16:37:11.928Z,18.80
2019-05-18T16:39:39.665Z,18.51
2019-05-18T16:42:07.211Z,18.63
2019-05-18T16:44:34.858Z,18.72
2019-05-18T16:47:06.521Z,18.59
2019-05-18T16:50:00.332Z,18.61
2019-05-18T16:52:28.126Z,18.43
2019-05-18T16:54:57.149Z,18.36
2019-05-18T16:57:24.975Z,18.24
2019-05-18T16:59:52.618Z,18.24
2019-05-18T17:02:31.163Z,18.27
2019-05-18T17:04:52.156Z,18.23
2019-05-18T17:07:20.622Z,18.10
2019-05-18T17:09:50.473Z,18.14
2019-05-18T17:12:18.634Z,18.00
2019-05-18T17:14:46.677Z,17.89
2019-05-18T17:17:14.531Z,17.85
2019-05-18T17:19:42.516Z,17.87
2019-05-18T17:22:10.469Z,17.82
2019-05-18T17:24:40.074Z,17.74
2019-05-18T17:27:08.090Z,17.77
2019-05-18T17:29:36.042Z,17.76
2019-05-18T17:32:04.073Z,17.78
2019-05-18T17:34:32.036Z,17.83
2019-05-18T17:37:00.134Z,17.74
2019-05-18T17:39:28.209Z,17.80
2019-05-18T17:41:56.277Z,17.64
2019-05-18T17:44:24.259Z,17.68
2019-05-18T17:46:52.353Z,17.58
2019-05-18T17:49:26.884Z,17.58
2019-05-18T17:51:51.179Z,17.50
2019-05-18T17:54:19.072Z,17.46
2019-05-18T17:56:46.931Z,17.42
2019-05-18T17:59:14.852Z,17.27
2019-05-18T18:01:42.855Z,17.25
2019-05-18T18:04:10.908Z,17.23
2019-05-18T18:06:38.928Z,17.22
2019-05-18T18:09:07.157Z,17.17
2019-05-18T18:11:35.394Z,17.08
2019-05-18T18:14:03.800Z,17.02
2019-05-18T18:16:31.918Z,16.94
2019-05-18T18:18:59.988Z,16.91
2019-05-18T18:21:27.960Z,16.90
2019-05-18T18:23:56.379Z,16.93
2019-05-18T18:26:25.030Z,16.90
2019-05-18T18:28:52.873Z,16.84
2019-05-18T18:31:21.012Z,16.76
2019-05-18T18:33:48.624Z,16.55
2019-05-18T18:36:16.491Z,16.71
2019-05-18T18:38:44.461Z,16.76
2019-05-18T18:41:12.350Z,16.73
2019-05-18T18:43:40.185Z,16.67
2019-05-18T18:46:08.622Z,16.55
2019-05-18T18:48:36.499Z,16.50
2019-05-18T18:51:04.230Z,16.49
2019-05-18T18:53:31.965Z,16.46
2019-05-18T18:55:59.689Z,16.38
2019-05-18T18:58:27.416Z,16.25
2019-05-18T19:00:55.087Z,16.20
2019-05-18T19:03:22.937Z,16.14
2019-05-18T19:05:50.625Z,16.05
2019-05-18T19:08:18.664Z,15.96
2019-05-18T19:10:46.455Z,15.90
2019-05-18T19:13:14.255Z,15.87
2019-05-18T19:15:41.954Z,15.90
2019-05-18T19:18:09.793Z,15.80
2019-05-18T19:20:37.477Z,15.60
2019-05-18T19:23:05.262Z,15.62
2019-05-18T19:25:32.942Z,15.54
2019-05-18T19:28:00.828Z,15.47
2019-05-18T19:30:28.498Z,15.38
2019-05-18T19:32:56.215Z,15.36
2019-05-18T19:35:23.840Z,15.28
2019-05-18T19:37:51.936Z,15.23
2019-05-18T19:40:19.698Z,15.15
2019-05-18T19:42:47.478Z,14.95
2019-05-18T19:45:15.342Z,15.04
2019-05-18T19:47:43.146Z,14.97
2019-05-18T19:50:11.270Z,14.87
2019-05-18T19:52:39.019Z,14.83
2019-05-18T19:55:06.906Z,14.81
2019-05-18T19:57:34.688Z,14.77
2019-05-18T20:00:04.093Z,14.67
2019-05-18T20:02:32.347Z,14.56
2019-05-18T20:05:07.313Z,14.54
2019-05-18T20:07:31.140Z,14.50
2019-05-18T20:09:59.246Z,14.38
2019-05-18T20:12:27.669Z,14.27
2019-05-18T20:14:56.845Z,14.19
2019-05-18T20:17:25.137Z,14.11
2019-05-18T20:19:54.073Z,14.02
2019-05-18T20:22:28.813Z,13.97
2019-05-18T20:25:00.573Z,13.95
2019-05-18T20:27:37.222Z,13.88
2019-05-18T20:30:10.093Z,13.76
2019-05-18T20:32:44.767Z,13.69
2019-05-18T20:35:13.956Z,13.63
2019-05-18T20:37:41.938Z,13.56
2019-05-18T20:40:10.557Z,13.35
2019-05-18T20:42:38.967Z,13.52
2019-05-18T20:45:07.526Z,13.46
2019-05-18T20:47:35.820Z,13.43
2019-05-18T20:50:03.899Z,13.37
2019-05-18T20:52:32.390Z,13.35
2019-05-18T20:55:00.564Z,13.32
2019-05-18T20:57:29.894Z,13.27
2019-05-18T20:59:58.432Z,13.25
2019-05-18T21:05:25.229Z,13.24
2019-05-18T21:07:58.003Z,13.26
2019-05-18T21:10:26.944Z,13.23
2019-05-18T21:12:55.286Z,13.20
2019-05-18T21:15:41.499Z,13.18
2019-05-18T21:18:09.869Z,13.20
2019-05-18T21:20:38.688Z,13.06
2019-05-18T21:23:09.582Z,13.18
2019-05-18T21:29:09.186Z,13.17
2019-05-18T21:31:38.454Z,13.13
2019-05-18T21:34:08.529Z,13.08
2019-05-18T21:36:37.268Z,13.05
2019-05-18T21:39:05.287Z,13.02
2019-05-18T21:41:33.224Z,12.94
2019-05-18T21:44:01.094Z,12.95
2019-05-18T21:46:29.282Z,12.93
2019-05-18T21:48:57.465Z,12.90
2019-05-18T21:51:25.776Z,12.81
2019-05-18T21:53:54.494Z,12.76
2019-05-18T21:56:23.534Z,12.70
2019-05-18T21:58:54.771Z,12.64
2019-05-18T22:01:23.021Z,12.60
2019-05-18T22:04:35.531Z,12.57
2019-05-18T22:11:10.252Z,12.35
2019-05-18T22:11:33.768Z,12.51
2019-05-18T22:14:06.149Z,12.35
2019-05-18T22:17:34.068Z,12.35
2019-05-18T22:24:01.176Z,12.16
2019-05-18T22:26:59.878Z,12.05
2019-05-18T22:30:38.179Z,12.00
2019-05-18T22:33:09.990Z,11.99
2019-05-18T22:35:38.631Z,11.94
2019-05-18T22:38:06.828Z,11.87
2019-05-18T22:40:35.028Z,11.82
2019-05-18T22:43:03.113Z,11.74
2019-05-18T22:45:31.444Z,11.86
2019-05-18T22:47:59.815Z,11.76
2019-05-18T22:50:27.936Z,11.68
2019-05-18T22:52:56.328Z,11.62
2019-05-18T22:55:24.455Z,11.59
2019-05-18T22:57:55.318Z,11.59
2019-05-18T23:00:23.755Z,11.59
2019-05-18T23:02:52.920Z,11.54
2019-05-18T23:05:21.390Z,11.51
2019-05-18T23:07:49.676Z,11.54
2019-05-18T23:10:17.839Z,11.51
2019-05-18T23:12:46.190Z,11.53
2019-05-18T23:15:14.494Z,11.49
2019-05-18T23:17:42.691Z,11.48
2019-05-18T23:20:11.348Z,11.49
2019-05-18T23:22:39.592Z,11.48
2019-05-18T23:25:08.071Z,11.45
2019-05-18T23:27:36.287Z,11.45
2019-05-18T23:30:04.507Z,11.43
2019-05-18T23:32:32.455Z,11.41
2019-05-18T23:35:01.136Z,11.40
2019-05-18T23:37:29.016Z,11.37
2019-05-18T23:39:56.653Z,11.35
2019-05-18T23:42:24.351Z,11.32
2019-05-18T23:44:53.001Z,11.33
2019-05-18T23:47:21.069Z,11.27
2019-05-18T23:49:48.996Z,11.27
2019-05-18T23:52:18.531Z,11.14
2019-05-18T23:54:46.411Z,11.04
2019-05-18T23:57:14.303Z,10.96
2019-05-18T23:59:42.007Z,10.96
